Time;durP1;ratioP1;P1;durP2;ratioP2;P2;SDS_P1;SDS_P2;PMS_P1;PMS_P2;Temp;Humidity;BMP_temperature;BMP_pressure;BME280_temperature;BME280_humidity;BME280_pressure;Samples;Min_cycle;Max_cycle;Signal;HPM_P1;HPM_P2
2023/07/03 00:00:46;;;;;;;13.95;4.10;;;18.60;92.00;;;;;;5045786;28;20216;-34
2023/07/03 00:03:16;;;;;;;12.00;4.20;;;18.60;92.00;;;;;;5043776;28;20200;-33
2023/07/03 00:05:44;;;;;;;13.55;4.30;;;18.50;91.90;;;;;;5045513;28;20200;-33
2023/07/03 00:08:14;;;;;;;14.20;3.97;;;18.50;92.00;;;;;;5043927;28;20204;-33
2023/07/03 00:10:43;;;;;;;14.52;4.30;;;18.50;92.00;;;;;;5045381;28;20200;-34
2023/07/03 00:13:15;;;;;;;12.90;3.58;;;18.50;92.10;;;;;;5045431;28;20212;-34
2023/07/03 00:15:43;;;;;;;13.55;4.13;;;18.50;92.10;;;;;;5045154;28;20295;-33
2023/07/03 00:18:10;;;;;;;12.85;3.72;;;18.50;92.10;;;;;;5043380;28;20218;-34
2023/07/03 00:20:38;;;;;;;13.05;3.95;;;18.50;92.20;;;;;;5045037;28;20188;-33
2023/07/03 00:23:05;;;;;;;12.93;4.25;;;18.50;92.20;;;;;;5043276;28;20273;-34
2023/07/03 00:25:32;;;;;;;14.82;4.40;;;18.50;92.30;;;;;;5043954;28;20200;-33
2023/07/03 00:27:59;;;;;;;14.30;4.22;;;18.50;92.30;;;;;;5045410;28;20203;-33
2023/07/03 00:30:36;;;;;;;14.90;4.18;;;18.50;92.30;;;;;;5044891;28;20209;-34
2023/07/03 00:33:06;;;;;;;16.95;4.50;;;18.40;92.40;;;;;;5045113;28;20208;-33
2023/07/03 00:35:34;;;;;;;11.73;4.28;;;18.40;92.40;;;;;;5042921;28;20200;-33
2023/07/03 00:38:01;;;;;;;11.50;3.90;;;18.40;92.50;;;;;;5045388;28;20686;-33
2023/07/03 00:40:29;;;;;;;11.70;3.88;;;18.40;92.50;;;;;;5044740;28;20204;-34
2023/07/03 00:42:56;;;;;;;20.38;4.45;;;18.40;92.60;;;;;;5044442;28;20817;-33
2023/07/03 00:45:24;;;;;;;13.73;4.00;;;18.40;92.70;;;;;;5042808;28;20196;-34
2023/07/03 00:47:52;;;;;;;13.98;4.72;;;18.50;92.70;;;;;;5042941;28;20200;-33
2023/07/03 00:50:23;;;;;;;16.40;5.38;;;18.50;92.70;;;;;;5044560;28;20736;-32
2023/07/03 00:52:56;;;;;;;14.77;4.75;;;18.50;92.90;;;;;;5044733;28;20200;-33
2023/07/03 00:55:24;;;;;;;17.95;5.30;;;18.50;92.90;;;;;;5044572;28;20554;-33
2023/07/03 00:57:51;;;;;;;16.13;4.75;;;18.50;92.90;;;;;;5044751;28;20281;-34
2023/07/03 01:00:21;;;;;;;15.57;4.72;;;18.50;93.00;;;;;;5044727;28;20200;-33
2023/07/03 01:03:26;;;;;;;13.50;4.60;;;18.50;93.00;;;;;;5044661;28;20370;-34
2023/07/03 01:05:58;;;;;;;16.58;4.75;;;18.50;93.00;;;;;;5046807;28;20257;-33
2023/07/03 01:08:27;;;;;;;15.63;4.53;;;18.50;93.00;;;;;;5044299;28;20208;-33
2023/07/03 01:10:55;;;;;;;12.48;4.95;;;18.50;93.10;;;;;;5042999;28;20554;-33
2023/07/03 01:13:27;;;;;;;17.23;4.80;;;18.50;93.10;;;;;;5043129;28;20204;-34
2023/07/03 01:15:55;;;;;;;19.02;5.20;;;18.50;93.20;;;;;;5043144;28;20200;-33
2023/07/03 01:18:26;;;;;;;16.77;4.97;;;18.50;93.30;;;;;;5044272;28;20204;-33
2023/07/03 01:21:23;;;;;;;18.65;5.18;;;18.60;93.50;;;;;;5048477;28;20689;-33
2023/07/03 01:24:00;;;;;;;17.52;4.95;;;18.60;93.50;;;;;;5043773;28;20235;-33
2023/07/03 01:26:28;;;;;;;17.20;5.10;;;18.60;93.80;;;;;;5046751;28;20196;-34
2023/07/03 01:28:58;;;;;;;17.50;4.68;;;18.60;93.40;;;;;;5046799;28;20192;-33
2023/07/03 01:31:30;;;;;;;15.70;4.90;;;18.60;93.60;;;;;;5048421;28;20562;-34
2023/07/03 01:34:01;;;;;;;14.68;5.38;;;18.60;93.60;;;;;;5047163;28;20565;-33
2023/07/03 01:36:30;;;;;;;13.60;4.15;;;18.60;93.70;;;;;;5063375;28;20705;-33
2023/07/03 01:39:03;;;;;;;15.45;5.32;;;18.60;93.60;;;;;;5046544;28;20980;-33
2023/07/03 01:41:31;;;;;;;14.43;4.30;;;18.60;93.70;;;;;;5046906;28;20610;-33
2023/07/03 01:44:01;;;;;;;18.20;4.93;;;18.60;94.00;;;;;;5046760;28;20200;-33
2023/07/03 01:46:31;;;;;;;15.65;4.90;;;18.60;93.90;;;;;;5046501;28;20291;-33
2023/07/03 01:49:01;;;;;;;15.90;5.50;;;18.60;93.80;;;;;;5048606;28;20228;-33
2023/07/03 01:51:49;;;;;;;19.25;4.80;;;18.60;93.80;;;;;;5046379;28;20230;-33
2023/07/03 01:54:25;;;;;;;17.45;5.63;;;18.60;94.80;;;;;;5048208;28;20258;-34
2023/07/03 01:56:57;;;;;;;14.27;5.28;;;18.60;94.10;;;;;;5048103;28;20575;-33
2023/07/03 01:59:29;;;;;;;19.00;4.72;;;18.60;94.20;;;;;;5046418;28;20197;-33
2023/07/03 02:02:01;;;;;;;15.93;4.95;;;18.50;94.10;;;;;;5047571;28;20232;-33
2023/07/03 02:04:37;;;;;;;21.77;5.50;;;18.60;94.00;;;;;;5047494;28;20704;-34
2023/07/03 02:07:08;;;;;;;17.08;5.55;;;18.60;94.20;;;;;;5047680;28;20302;-33
2023/07/03 02:09:37;;;;;;;16.40;5.07;;;18.50;94.20;;;;;;5047747;28;20219;-33
2023/07/03 02:12:06;;;;;;;17.83;5.80;;;18.50;94.20;;;;;;5047777;28;20200;-34
2023/07/03 02:14:34;;;;;;;17.90;5.43;;;18.50;94.20;;;;;;5045642;28;20231;-34
2023/07/03 02:17:03;;;;;;;15.48;4.80;;;18.50;94.20;;;;;;5045952;28;20259;-33
2023/07/03 02:19:36;;;;;;;18.48;5.97;;;18.50;94.30;;;;;;5046204;28;20204;-33
2023/07/03 02:22:07;;;;;;;15.98;5.10;;;18.50;94.30;;;;;;5047456;28;20233;-33
2023/07/03 02:24:39;;;;;;;15.70;5.10;;;18.50;94.20;;;;;;5047580;28;20207;-34
2023/07/03 02:27:13;;;;;;;13.25;4.30;;;18.50;94.20;;;;;;5047078;28;20219;-33
2023/07/03 02:29:41;;;;;;;15.45;5.50;;;18.50;94.30;;;;;;5047523;28;20600;-34
2023/07/03 02:32:12;;;;;;;15.15;4.65;;;18.50;94.30;;;;;;5045532;28;20832;-34
2023/07/03 02:34:42;;;;;;;21.33;5.95;;;18.50;94.50;;;;;;5046792;28;20592;-34
2023/07/03 02:37:13;;;;;;;16.02;5.05;;;18.50;94.50;;;;;;5045514;28;20204;-33
2023/07/03 02:39:41;;;;;;;15.18;5.55;;;18.50;94.50;;;;;;5045841;28;20258;-34
2023/07/03 02:42:13;;;;;;;17.85;4.63;;;18.50;94.50;;;;;;5045239;28;20220;-33
2023/07/03 02:44:43;;;;;;;21.27;5.43;;;18.50;94.50;;;;;;5029871;28;20216;-33
2023/07/03 02:47:13;;;;;;;21.27;5.25;;;18.50;94.60;;;;;;5046544;28;20219;-34
2023/07/03 02:49:40;;;;;;;15.18;5.30;;;18.50;94.60;;;;;;5047130;28;20258;-33
2023/07/03 02:52:12;;;;;;;17.33;5.13;;;18.50;94.80;;;;;;5046760;28;20774;-34
2023/07/03 02:54:40;;;;;;;16.10;5.43;;;18.50;94.60;;;;;;5028624;28;20205;-33
2023/07/03 02:57:07;;;;;;;17.63;6.32;;;18.50;94.80;;;;;;5046450;28;20212;-33
2023/07/03 02:59:36;;;;;;;17.63;5.68;;;18.50;94.70;;;;;;5044890;28;20633;-34
2023/07/03 03:02:06;;;;;;;16.83;5.13;;;18.50;94.80;;;;;;5045052;28;20270;-33
2023/07/03 03:04:38;;;;;;;19.63;5.25;;;18.50;94.80;;;;;;5044888;28;20197;-34
2023/07/03 03:07:05;;;;;;;15.65;5.45;;;18.50;94.80;;;;;;5044535;28;20204;-33
2023/07/03 03:09:35;;;;;;;18.63;6.20;;;18.50;94.90;;;;;;5061466;28;20207;-33
2023/07/03 03:12:02;;;;;;;17.40;6.13;;;18.50;94.80;;;;;;5046608;28;20234;-34
2023/07/03 03:14:36;;;;;;;17.02;5.25;;;18.60;95.00;;;;;;5046376;28;20207;-34
2023/07/03 03:17:04;;;;;;;16.98;5.50;;;18.60;95.00;;;;;;5045280;28;20658;-33
2023/07/03 03:19:31;;;;;;;14.55;5.43;;;18.60;95.00;;;;;;5046079;28;20208;-33
2023/07/03 03:21:58;;;;;;;18.10;6.15;;;18.60;95.10;;;;;;5044753;28;20239;-33
2023/07/03 03:24:26;;;;;;;15.73;5.20;;;18.60;95.10;;;;;;5046014;28;20202;-33
2023/07/03 03:26:54;;;;;;;15.82;5.63;;;18.60;95.10;;;;;;5044502;28;20299;-33
2023/07/03 03:29:21;;;;;;;20.33;5.78;;;18.60;95.10;;;;;;5046187;28;20215;-33
2023/07/03 03:31:51;;;;;;;19.05;5.75;;;18.60;95.10;;;;;;5046089;28;20269;-34
2023/07/03 03:34:20;;;;;;;15.38;5.53;;;18.60;95.20;;;;;;5044706;28;20669;-33
2023/07/03 03:36:52;;;;;;;12.57;5.20;;;18.60;95.30;;;;;;5046420;28;20200;-33
2023/07/03 03:39:19;;;;;;;14.18;4.85;;;18.60;95.30;;;;;;5045990;28;20705;-33
2023/07/03 03:41:46;;;;;;;17.63;6.35;;;18.60;95.40;;;;;;5044081;28;20212;-33
2023/07/03 03:44:16;;;;;;;16.95;5.57;;;18.60;95.30;;;;;;5044429;28;20301;-33
2023/07/03 03:46:43;;;;;;;19.42;5.68;;;18.60;95.40;;;;;;5043829;28;20196;-33
2023/07/03 03:49:13;;;;;;;17.45;5.45;;;18.60;95.30;;;;;;5046017;28;20239;-34
2023/07/03 03:51:42;;;;;;;17.33;5.85;;;18.60;95.40;;;;;;5060203;28;20207;-34
2023/07/03 03:54:12;;;;;;;17.20;5.90;;;18.60;95.40;;;;;;5045619;28;20287;-33
2023/07/03 03:56:39;;;;;;;16.45;5.35;;;18.60;95.40;;;;;;5043747;28;20212;-34
2023/07/03 03:59:06;;;;;;;18.80;5.97;;;18.60;95.50;;;;;;5045703;28;20696;-33
2023/07/03 04:01:34;;;;;;;18.30;5.97;;;18.60;95.60;;;;;;5044154;28;20661;-33
2023/07/03 04:04:04;;;;;;;18.23;5.95;;;18.60;95.60;;;;;;5027688;28;20223;-33
2023/07/03 04:06:31;;;;;;;17.05;6.03;;;18.60;95.50;;;;;;5043882;28;20211;-33
2023/07/03 04:09:07;;;;;;;18.15;5.97;;;18.60;95.50;;;;;;5043693;28;20206;-33
2023/07/03 04:11:35;;;;;;;19.73;6.38;;;18.70;95.70;;;;;;5045434;28;20199;-34
2023/07/03 04:14:02;;;;;;;15.85;6.05;;;18.60;95.60;;;;;;5045215;28;20289;-33
2023/07/03 04:16:31;;;;;;;15.90;5.95;;;18.70;95.70;;;;;;5060096;28;20318;-34
2023/07/03 04:18:59;;;;;;;17.42;6.57;;;18.70;95.90;;;;;;5043347;28;20200;-33
2023/07/03 04:21:26;;;;;;;17.55;6.05;;;18.70;96.10;;;;;;5045040;28;20214;-33
2023/07/03 04:23:54;;;;;;;16.50;6.25;;;18.70;95.90;;;;;;5044562;28;20327;-33
2023/07/03 04:26:22;;;;;;;18.90;6.60;;;18.60;95.80;;;;;;5043559;28;20224;-33
2023/07/03 04:28:49;;;;;;;14.02;5.40;;;18.70;96.10;;;;;;5044877;28;20204;-33
2023/07/03 04:31:21;;;;;;;19.08;5.95;;;18.60;95.80;;;;;;5044853;28;20644;-33
2023/07/03 04:33:56;;;;;;;18.52;5.63;;;18.70;95.90;;;;;;5043823;28;20309;-33
2023/07/03 04:36:25;;;;;;;18.88;6.00;;;18.70;96.10;;;;;;5045106;28;20204;-34
2023/07/03 04:38:57;;;;;;;15.38;5.57;;;18.70;96.10;;;;;;5044459;28;20578;-34
2023/07/03 04:41:31;;;;;;;16.05;5.93;;;18.70;96.20;;;;;;5043093;28;20207;-34
2023/07/03 04:44:01;;;;;;;17.55;6.03;;;18.80;96.10;;;;;;5042946;28;20202;-34
2023/07/03 04:46:31;;;;;;;13.95;5.85;;;18.80;96.10;;;;;;5045137;28;20196;-33
2023/07/03 04:49:04;;;;;;;19.35;6.90;;;18.80;96.20;;;;;;5045200;28;20266;-33
2023/07/03 04:51:33;;;;;;;17.77;5.97;;;18.80;96.10;;;;;;5043245;28;20204;-33
2023/07/03 04:54:06;;;;;;;15.57;5.70;;;18.80;96.20;;;;;;5042394;28;20788;-33
2023/07/03 04:56:38;;;;;;;16.65;6.45;;;18.80;96.30;;;;;;5044806;28;20208;-33
2023/07/03 04:59:10;;;;;;;16.92;5.80;;;18.90;96.30;;;;;;5042800;28;20196;-34
2023/07/03 05:01:44;;;;;;;22.55;6.40;;;18.90;96.30;;;;;;5044409;28;20534;-34
2023/07/03 05:04:22;;;;;;;19.08;6.70;;;18.90;96.80;;;;;;5044752;28;20195;-33
2023/07/03 05:06:50;;;;;;;18.63;6.10;;;18.90;96.50;;;;;;5043175;28;20677;-33
2023/07/03 05:09:18;;;;;;;15.57;6.00;;;19.00;96.50;;;;;;5042871;28;20737;-33
2023/07/03 05:11:51;;;;;;;15.52;5.85;;;19.00;96.70;;;;;;5043053;28;20204;-33
2023/07/03 05:14:21;;;;;;;16.38;5.97;;;19.00;96.50;;;;;;5042896;28;20640;-33
2023/07/03 05:16:50;;;;;;;16.95;6.57;;;19.10;96.50;;;;;;5043318;28;20554;-34
2023/07/03 05:19:18;;;;;;;17.63;6.28;;;19.10;96.60;;;;;;5044270;28;20224;-33
2023/07/03 05:21:48;;;;;;;14.88;5.70;;;19.10;96.70;;;;;;5042505;28;20690;-33
2023/07/03 05:24:15;;;;;;;17.13;6.00;;;19.10;96.70;;;;;;5042975;28;20208;-33
2023/07/03 05:26:45;;;;;;;17.63;6.05;;;19.10;96.60;;;;;;5044774;28;20231;-33
2023/07/03 05:29:12;;;;;;;18.38;5.50;;;19.10;96.60;;;;;;5044232;28;20201;-33
2023/07/03 05:31:39;;;;;;;19.13;5.65;;;19.20;96.60;;;;;;5042437;28;20313;-34
2023/07/03 05:34:09;;;;;;;15.90;5.75;;;19.20;96.70;;;;;;5044174;28;20227;-33
2023/07/03 05:36:36;;;;;;;12.85;4.97;;;19.20;96.60;;;;;;5042890;28;20211;-33
2023/07/03 05:39:08;;;;;;;16.85;5.85;;;19.20;96.70;;;;;;5042611;28;20196;-33
2023/07/03 05:41:35;;;;;;;14.88;5.75;;;19.20;96.60;;;;;;5042754;28;20593;-33
2023/07/03 05:44:02;;;;;;;16.08;6.00;;;19.30;96.60;;;;;;5043997;28;20561;-33
2023/07/03 05:46:32;;;;;;;14.82;5.75;;;19.30;96.60;;;;;;5044261;28;20197;-33
2023/07/03 05:49:01;;;;;;;20.77;6.57;;;19.30;96.60;;;;;;5044086;28;20196;-33
2023/07/03 05:51:31;;;;;;;13.85;5.25;;;19.30;96.70;;;;;;5044026;28;20210;-33
2023/07/03 05:54:01;;;;;;;19.60;5.65;;;19.40;96.70;;;;;;5042667;28;20729;-33
2023/07/03 05:56:30;;;;;;;14.65;5.80;;;19.40;96.60;;;;;;5042539;28;20201;-34
2023/07/03 05:59:05;;;;;;;16.10;5.45;;;19.50;96.80;;;;;;5043971;28;20219;-33
2023/07/03 06:01:37;;;;;;;16.55;5.65;;;19.50;96.70;;;;;;5042671;28;20473;-33
2023/07/03 06:04:10;;;;;;;16.17;5.35;;;19.60;96.80;;;;;;5043937;28;20595;-33
2023/07/03 06:06:39;;;;;;;14.20;4.95;;;19.60;96.90;;;;;;5045448;28;20662;-33
2023/07/03 06:09:07;;;;;;;22.20;5.88;;;19.70;96.80;;;;;;5047563;28;20196;-33
2023/07/03 06:11:34;;;;;;;14.45;5.53;;;19.80;96.80;;;;;;5047134;28;20200;-33
2023/07/03 06:14:01;;;;;;;17.30;5.50;;;19.90;96.90;;;;;;5045625;28;20207;-34
2023/07/03 06:16:34;;;;;;;12.85;5.47;;;19.90;96.90;;;;;;5045566;28;20211;-33
2023/07/03 06:19:04;;;;;;;14.18;4.35;;;19.90;96.90;;;;;;5047326;28;20204;-33
2023/07/03 06:21:34;;;;;;;14.63;5.53;;;20.00;97.20;;;;;;5045809;28;20682;-34
2023/07/03 06:24:01;;;;;;;14.73;5.65;;;20.00;97.10;;;;;;5062104;28;20236;-34
2023/07/03 06:26:33;;;;;;;17.52;5.70;;;20.00;97.10;;;;;;5047337;28;20477;-33
2023/07/03 06:29:02;;;;;;;16.30;6.00;;;20.00;97.00;;;;;;5047192;28;20265;-33
2023/07/03 06:31:30;;;;;;;17.33;5.63;;;20.10;97.10;;;;;;5047142;28;20200;-34
2023/07/03 06:33:59;;;;;;;16.92;5.68;;;20.10;97.10;;;;;;5046771;28;20208;-33
2023/07/03 06:36:34;;;;;;;18.02;6.55;;;20.10;97.00;;;;;;5061531;28;20238;-33
2023/07/03 06:39:05;;;;;;;12.80;6.28;;;20.10;97.00;;;;;;5045281;28;20670;-33
2023/07/03 06:41:37;;;;;;;14.90;5.72;;;20.10;97.10;;;;;;5045311;28;20534;-33
2023/07/03 06:44:06;;;;;;;18.17;6.63;;;20.10;97.10;;;;;;5045927;28;20270;-33
2023/07/03 06:46:38;;;;;;;17.70;6.57;;;20.10;97.20;;;;;;5046562;28;20571;-33
2023/07/03 06:49:09;;;;;;;17.92;7.40;;;20.10;97.30;;;;;;5047131;28;20193;-33
2023/07/03 06:51:40;;;;;;;17.60;7.03;;;20.10;97.30;;;;;;5046987;28;20208;-33
2023/07/03 06:54:07;;;;;;;17.00;7.18;;;20.10;97.30;;;;;;5046628;28;20228;-34
2023/07/03 06:56:35;;;;;;;17.92;6.95;;;20.10;97.30;;;;;;5044925;28;20235;-33
2023/07/03 06:59:04;;;;;;;15.98;6.40;;;20.10;97.30;;;;;;5044900;28;20326;-34
2023/07/03 07:01:37;;;;;;;16.90;7.00;;;20.10;97.40;;;;;;5046563;28;20222;-33
2023/07/03 07:04:04;;;;;;;19.95;7.00;;;20.10;97.40;;;;;;5061041;28;20228;-33
2023/07/03 07:06:31;;;;;;;14.13;6.28;;;20.10;97.40;;;;;;5046177;28;20602;-34
2023/07/03 07:09:03;;;;;;;15.55;6.53;;;20.10;97.40;;;;;;5045039;28;20597;-33
2023/07/03 07:11:36;;;;;;;15.52;6.07;;;20.20;97.50;;;;;;5046450;28;20307;-34
2023/07/03 07:14:06;;;;;;;17.35;6.30;;;20.20;97.50;;;;;;5046404;28;20568;-33
2023/07/03 07:16:37;;;;;;;19.02;6.80;;;20.20;97.50;;;;;;5044003;28;20216;-34
2023/07/03 07:19:10;;;;;;;17.42;6.43;;;20.10;97.60;;;;;;5046062;28;20806;-33
2023/07/03 07:21:42;;;;;;;13.82;5.75;;;20.10;97.60;;;;;;5045932;28;20580;-33
2023/07/03 07:24:18;;;;;;;16.13;6.45;;;20.10;97.70;;;;;;5045799;28;20252;-34
2023/07/03 07:26:47;;;;;;;14.73;6.38;;;20.10;97.90;;;;;;5045938;28;20283;-34
2023/07/03 07:29:14;;;;;;;17.25;5.65;;;20.10;98.00;;;;;;5044926;28;20192;-33
2023/07/03 07:31:42;;;;;;;11.30;5.07;;;20.10;98.00;;;;;;5044445;28;20211;-34
2023/07/03 07:34:12;;;;;;;11.60;4.20;;;20.00;97.90;;;;;;5044355;28;20200;-33
2023/07/03 07:39:22;;;;;;;10.68;4.13;;;19.90;97.70;;;;;;5061849;28;21135;-27
2023/07/03 07:41:55;;;;;;;11.38;4.22;;;19.80;97.70;;;;;;5060567;28;20636;-26
2023/07/03 07:44:23;;;;;;;11.65;5.28;;;19.70;97.60;;;;;;5060371;28;20932;-27
2023/07/03 07:46:50;;;;;;;12.10;5.20;;;19.60;97.60;;;;;;5060131;28;20192;-26
2023/07/03 07:49:20;;;;;;;11.05;4.57;;;19.60;97.70;;;;;;5061827;28;20670;-26
2023/07/03 07:51:47;;;;;;;11.07;4.57;;;19.50;97.80;;;;;;5059901;28;20293;-26
2023/07/03 07:54:15;;;;;;;11.32;4.72;;;19.50;98.20;;;;;;5059829;28;20203;-26
2023/07/03 07:56:45;;;;;;;13.98;4.90;;;19.40;97.80;;;;;;5059660;28;20200;-26
2023/07/03 07:59:15;;;;;;;15.70;5.32;;;19.40;97.90;;;;;;5061041;28;20877;-26
2023/07/03 08:01:44;;;;;;;15.15;5.35;;;19.40;98.00;;;;;;5061506;28;20203;-26
2023/07/03 08:04:12;;;;;;;13.77;4.93;;;19.40;97.90;;;;;;5059754;28;20582;-26
2023/07/03 08:06:39;;;;;;;9.05;4.90;;;19.40;97.90;;;;;;5061166;28;20195;-26
2023/07/03 08:09:11;;;;;;;12.95;4.72;;;19.50;98.10;;;;;;5059524;28;20206;-26
2023/07/03 08:11:41;;;;;;;12.07;5.15;;;19.50;98.20;;;;;;5060871;28;20227;-26
2023/07/03 08:14:09;;;;;;;9.00;4.75;;;19.60;98.20;;;;;;5060651;28;20204;-26
2023/07/03 08:16:39;;;;;;;12.50;5.40;;;19.60;98.30;;;;;;5059638;28;20599;-26
2023/07/03 08:19:08;;;;;;;13.57;4.78;;;19.70;98.40;;;;;;5059479;28;20220;-26
2023/07/03 08:21:36;;;;;;;15.15;5.82;;;19.70;98.20;;;;;;5060762;28;20195;-26
2023/07/03 08:24:03;;;;;;;11.73;5.53;;;19.70;98.10;;;;;;5059414;28;20200;-26
2023/07/03 08:26:31;;;;;;;12.02;5.40;;;19.80;98.10;;;;;;5060162;28;20203;-26
2023/07/03 08:29:01;;;;;;;15.23;5.30;;;19.80;98.20;;;;;;5060233;28;20236;-34
2023/07/03 08:31:33;;;;;;;12.05;5.20;;;19.80;98.10;;;;;;5059052;28;20210;-34
2023/07/03 08:34:02;;;;;;;14.43;5.57;;;19.90;98.20;;;;;;5060778;28;20206;-34
2023/07/03 08:36:32;;;;;;;13.20;5.63;;;20.00;98.30;;;;;;5061329;28;20196;-34
2023/07/03 08:39:04;;;;;;;12.98;5.40;;;20.00;98.30;;;;;;5060129;28;20248;-34
2023/07/03 08:41:49;;;;;;;10.25;4.88;;;20.10;98.40;;;;;;5058779;28;20705;-34
2023/07/03 08:44:19;;;;;;;11.70;4.57;;;20.20;98.40;;;;;;5058805;28;20196;-34
2023/07/03 08:46:52;;;;;;;12.77;5.05;;;20.20;98.20;;;;;;5058860;28;20195;-34
2023/07/03 08:49:39;;;;;;;13.40;4.75;;;20.30;98.30;;;;;;5051494;28;20200;-35
2023/07/03 08:52:07;;;;;;;10.80;4.75;;;20.30;98.10;;;;;;5047614;28;20207;-34
2023/07/03 08:54:40;;;;;;;12.90;5.10;;;20.30;98.10;;;;;;5046956;28;20210;-34
2023/07/03 08:57:13;;;;;;;15.65;5.10;;;20.30;98.10;;;;;;5045533;28;20250;-34
2023/07/03 08:59:41;;;;;;;14.70;5.05;;;20.30;98.20;;;;;;5047367;28;20657;-34
2023/07/03 09:02:22;;;;;;;14.18;4.70;;;20.30;98.50;;;;;;5045317;28;20739;-34
2023/07/03 09:05:05;;;;;;;9.93;4.47;;;20.30;98.20;;;;;;5046929;28;20246;-34
2023/07/03 09:07:43;;;;;;;10.77;4.88;;;20.40;98.20;;;;;;5046970;28;20196;-34
2023/07/03 09:10:23;;;;;;;14.32;4.90;;;20.40;98.10;;;;;;5046375;28;20197;-34
2023/07/03 09:13:02;;;;;;;13.45;4.70;;;20.50;98.10;;;;;;5047094;28;20699;-33
2023/07/03 09:15:52;;;;;;;13.35;4.35;;;20.50;98.00;;;;;;5046624;28;20204;-33
2023/07/03 09:18:27;;;;;;;11.65;4.28;;;20.50;97.90;;;;;;5046458;28;20255;-33
2023/07/03 09:21:03;;;;;;;16.20;4.50;;;20.50;98.10;;;;;;5046328;28;20997;-33
2023/07/03 09:23:41;;;;;;;13.48;4.88;;;20.50;97.70;;;;;;5044425;28;20192;-33
2023/07/03 09:26:36;;;;;;;12.25;4.55;;;20.50;97.60;;;;;;5046376;28;20322;-33
2023/07/03 09:29:05;;;;;;;9.63;4.07;;;20.50;97.60;;;;;;5046539;28;20204;-33
2023/07/03 09:31:36;;;;;;;9.52;4.22;;;20.50;97.50;;;;;;5046341;28;20243;-33
2023/07/03 09:34:06;;;;;;;14.15;4.80;;;20.50;97.60;;;;;;5045337;28;20674;-33
2023/07/03 09:36:39;;;;;;;12.65;4.43;;;20.60;97.60;;;;;;5046111;28;20227;-33
2023/07/03 09:39:19;;;;;;;10.73;4.30;;;20.60;97.50;;;;;;5044317;28;20236;-33
2023/07/03 09:41:51;;;;;;;12.68;4.63;;;20.70;97.70;;;;;;5044440;28;20215;-33
2023/07/03 09:44:23;;;;;;;10.73;3.95;;;20.70;97.70;;;;;;5044639;28;20196;-33
2023/07/03 09:46:56;;;;;;;12.88;4.63;;;20.80;97.80;;;;;;5046016;28;20197;-33
2023/07/03 09:49:28;;;;;;;15.25;4.43;;;20.90;97.80;;;;;;5044422;28;20204;-33
2023/07/03 09:52:04;;;;;;;11.75;3.72;;;20.90;97.70;;;;;;5045601;28;20204;-33
2023/07/03 09:54:42;;;;;;;11.32;4.13;;;21.00;97.70;;;;;;5046005;28;20511;-33
2023/07/03 09:57:23;;;;;;;9.15;3.97;;;21.00;97.70;;;;;;5046143;28;20200;-33
2023/07/03 10:00:09;;;;;;;12.10;4.55;;;21.10;97.80;;;;;;5046107;28;20701;-33
2023/07/03 10:02:36;;;;;;;12.25;4.13;;;21.10;97.60;;;;;;5044851;28;20230;-33
2023/07/03 10:05:07;;;;;;;9.65;3.60;;;21.00;97.50;;;;;;5044019;28;20196;-33
2023/07/03 10:07:43;;;;;;;12.75;4.40;;;21.10;97.60;;;;;;5045583;28;20682;-33
2023/07/03 10:10:22;;;;;;;12.25;3.90;;;21.10;97.60;;;;;;5044143;28;20196;-34
2023/07/03 10:13:28;;;;;;;8.38;3.58;;;21.20;97.70;;;;;;5045312;28;20204;-33
2023/07/03 10:15:58;;;;;;;9.48;3.80;;;21.20;97.70;;;;;;5044312;28;20217;-33
2023/07/03 10:18:36;;;;;;;11.82;4.05;;;21.20;97.60;;;;;;5045021;28;20584;-34
2023/07/03 10:21:10;;;;;;;11.68;3.72;;;21.30;97.70;;;;;;5045399;28;20685;-34
2023/07/03 10:23:40;;;;;;;10.90;3.65;;;21.30;97.50;;;;;;5044769;28;20291;-33
2023/07/03 10:26:23;;;;;;;11.07;2.72;;;21.30;97.20;;;;;;5045640;28;20675;-33
2023/07/03 10:29:00;;;;;;;9.80;2.78;;;21.20;97.00;;;;;;5043716;28;20212;-34
2023/07/03 10:31:39;;;;;;;10.25;3.60;;;21.20;97.00;;;;;;5044793;28;20204;-33
2023/07/03 10:34:15;;;;;;;11.30;3.50;;;21.10;96.50;;;;;;5044636;28;20216;-34
2023/07/03 10:36:52;;;;;;;12.32;3.75;;;21.10;96.70;;;;;;5044863;28;20295;-34
2023/07/03 10:39:47;;;;;;;11.55;3.03;;;21.00;96.40;;;;;;5045326;28;20289;-34
2023/07/03 10:42:43;;;;;;;8.85;3.15;;;21.00;96.40;;;;;;5042938;28;20200;-34
2023/07/03 10:45:13;;;;;;;9.95;3.35;;;21.10;96.50;;;;;;5045056;28;20200;-34
2023/07/03 10:47:52;;;;;;;8.32;2.92;;;21.10;96.80;;;;;;5043481;28;20198;-34
2023/07/03 10:50:31;;;;;;;9.45;2.83;;;21.20;96.90;;;;;;5043003;28;20640;-34
2023/07/03 10:53:36;;;;;;;8.27;2.50;;;21.30;96.60;;;;;;5044790;28;20206;-34
2023/07/03 10:56:27;;;;;;;7.85;3.03;;;21.40;96.50;;;;;;5041893;28;20220;-34
2023/07/03 10:59:08;;;;;;;8.02;2.90;;;21.40;96.30;;;;;;5043065;28;20311;-34
2023/07/03 11:01:57;;;;;;;8.20;3.05;;;21.50;96.60;;;;;;5044764;28;20459;-34
2023/07/03 11:05:34;;;;;;;11.50;3.20;;;21.60;96.70;;;;;;5043175;28;20679;-34
2023/07/03 11:08:19;;;;;;;6.10;2.42;;;21.70;96.70;;;;;;5010120;28;20204;-33
2023/07/03 11:10:57;;;;;;;9.23;2.88;;;21.70;96.80;;;;;;5042737;28;20205;-33
2023/07/03 11:13:49;;;;;;;9.93;3.10;;;21.80;97.00;;;;;;5042569;28;20210;-33
2023/07/03 11:16:24;;;;;;;8.25;2.88;;;21.90;97.00;;;;;;5044232;28;20200;-33
2023/07/03 11:18:57;;;;;;;9.63;3.17;;;22.00;97.00;;;;;;5042994;28;20630;-33
2023/07/03 11:21:47;;;;;;;7.82;2.80;;;22.00;96.50;;;;;;5044343;28;20741;-33
2023/07/03 11:24:19;;;;;;;12.77;2.97;;;22.10;96.50;;;;;;5044967;28;20199;-33
2023/07/03 11:26:57;;;;;;;10.32;2.78;;;22.10;96.30;;;;;;5042695;28;20667;-33
2023/07/03 11:29:28;;;;;;;9.68;2.88;;;22.20;96.20;;;;;;5044430;28;20508;-33
2023/07/03 11:32:01;;;;;;;10.57;3.20;;;22.10;96.00;;;;;;5042817;28;20546;-33
2023/07/03 11:34:28;;;;;;;12.23;3.05;;;22.10;96.10;;;;;;5044138;28;20200;-33
2023/07/03 11:37:18;;;;;;;8.38;3.05;;;22.10;95.80;;;;;;5044264;28;20200;-33
2023/07/03 11:39:49;;;;;;;11.30;3.17;;;22.10;96.00;;;;;;5043980;28;20608;-33
2023/07/03 11:42:24;;;;;;;11.70;2.92;;;22.10;95.90;;;;;;5043637;28;20764;-33
2023/07/03 11:45:01;;;;;;;11.00;3.67;;;22.10;95.70;;;;;;5043835;28;20208;-33
2023/07/03 11:47:34;;;;;;;10.25;2.65;;;22.20;96.00;;;;;;5044422;28;20195;-33
2023/07/03 11:50:03;;;;;;;12.88;3.28;;;22.20;95.70;;;;;;5042495;28;20204;-33
2023/07/03 11:52:36;;;;;;;11.13;3.00;;;22.20;95.80;;;;;;5042596;28;20239;-33
2023/07/03 11:55:20;;;;;;;9.38;3.20;;;22.20;95.90;;;;;;5042796;28;20207;-34
2023/07/03 11:58:00;;;;;;;10.13;2.88;;;22.30;96.00;;;;;;5044152;28;20783;-33
2023/07/03 12:01:22;;;;;;;7.22;2.60;;;22.40;96.00;;;;;;5042784;28;20188;-33
2023/07/03 12:04:00;;;;;;;10.18;2.40;;;22.40;95.60;;;;;;5044066;28;20315;-33
2023/07/03 12:06:40;;;;;;;6.72;2.55;;;22.50;96.00;;;;;;5043814;28;20254;-33
2023/07/03 12:09:32;;;;;;;11.07;2.80;;;22.60;96.00;;;;;;5044259;28;20192;-34
2023/07/03 12:11:59;;;;;;;8.63;2.40;;;22.60;96.00;;;;;;5043625;28;20200;-33
2023/07/03 12:17:29;;;;;;;9.93;2.60;;;22.70;96.10;;;;;;5043819;28;20215;-33
2023/07/03 12:20:07;;;;;;;8.85;2.65;;;22.80;95.70;;;;;;5043740;28;20232;-33
2023/07/03 12:22:42;;;;;;;8.77;2.78;;;22.80;95.90;;;;;;5043972;28;20201;-33
2023/07/03 12:25:10;;;;;;;12.13;2.72;;;22.70;95.70;;;;;;5046067;28;20204;-33
2023/07/03 12:27:40;;;;;;;13.73;2.40;;;22.80;95.50;;;;;;5045948;28;20201;-33
2023/07/03 12:30:20;;;;;;;9.43;2.90;;;22.80;95.70;;;;;;5045818;28;20231;-33
2023/07/03 12:32:54;;;;;;;11.45;2.65;;;22.80;95.50;;;;;;5045744;28;20200;-33
2023/07/03 12:35:34;;;;;;;9.63;2.72;;;22.90;95.60;;;;;;5047497;28;20200;-33
2023/07/03 12:38:09;;;;;;;9.60;3.00;;;22.90;95.00;;;;;;5044996;28;20800;-33
2023/07/03 12:40:44;;;;;;;10.05;2.97;;;22.90;95.50;;;;;;5047525;28;20204;-33
2023/07/03 12:43:17;;;;;;;10.95;3.53;;;23.00;95.10;;;;;;5045694;28;20200;-33
2023/07/03 12:45:54;;;;;;;12.15;3.30;;;23.00;95.30;;;;;;5046958;28;20205;-33
2023/07/03 12:48:22;;;;;;;10.43;3.47;;;23.00;95.40;;;;;;5047375;28;20223;-33
2023/07/03 12:50:58;;;;;;;11.25;3.55;;;23.10;95.50;;;;;;5045742;28;20235;-33
2023/07/03 12:53:34;;;;;;;9.30;3.22;;;23.10;95.40;;;;;;5047640;28;20199;-33
2023/07/03 12:56:06;;;;;;;13.30;3.08;;;23.20;95.20;;;;;;5045967;28;20278;-33
2023/07/03 12:58:37;;;;;;;12.25;3.30;;;23.30;95.30;;;;;;5046614;28;20235;-33
2023/07/03 13:01:08;;;;;;;11.93;3.28;;;23.30;95.20;;;;;;5044621;28;20245;-33
2023/07/03 13:03:40;;;;;;;11.95;3.38;;;23.40;95.30;;;;;;5046768;28;20212;-33
2023/07/03 13:06:19;;;;;;;10.60;3.28;;;23.40;95.10;;;;;;5046440;28;20200;-33
2023/07/03 13:08:51;;;;;;;9.43;3.13;;;23.40;94.80;;;;;;5047008;28;20733;-33
2023/07/03 13:11:37;;;;;;;12.02;3.53;;;23.40;95.20;;;;;;5046522;28;20205;-34